Time;durP1;ratioP1;P1;durP2;ratioP2;P2;SDS_P1;SDS_P2;PMS_P1;PMS_P2;Temp;Humidity;BMP_temperature;BMP_pressure;BME280_temperature;BME280_humidity;BME280_pressure;Samples;Min_cycle;Max_cycle;Signal;HPM_P1;HPM_P2
2021/04/10 00:02:12;;;;;;;9.88;4.43;;;7.70;99.90;;;;;;5045545;28;20021;-90
2021/04/10 00:04:39;;;;;;;11.60;4.50;;;7.70;99.90;;;;;;5037819;28;20037;-90
2021/04/10 00:07:05;;;;;;;16.90;5.20;;;7.70;99.90;;;;;;5038705;28;20048;-89
2021/04/10 00:09:33;;;;;;;10.68;4.25;;;7.60;99.90;;;;;;5040562;28;20051;-90
2021/04/10 00:11:59;;;;;;;14.70;4.50;;;7.60;99.90;;;;;;5033400;28;20095;-91
2021/04/10 00:14:31;;;;;;;9.80;3.75;;;7.60;99.90;;;;;;5036355;28;20044;-90
2021/04/10 00:16:56;;;;;;;12.18;4.45;;;7.60;99.90;;;;;;5034888;28;20026;-88
2021/04/10 00:19:22;;;;;;;8.50;3.60;;;7.50;99.90;;;;;;5025423;28;20021;-88
2021/04/10 00:21:50;;;;;;;10.75;3.03;;;7.60;99.90;;;;;;5027328;28;20040;-89
2021/04/10 00:24:16;;;;;;;8.85;3.50;;;7.60;99.90;;;;;;5017729;28;20029;-89
2021/04/10 00:26:42;;;;;;;8.57;3.38;;;7.50;99.90;;;;;;5015127;28;20539;-90
2021/04/10 00:29:36;;;;;;;15.85;3.83;;;7.50;99.90;;;;;;5034061;28;20105;-91
2021/04/10 00:32:02;;;;;;;10.80;3.97;;;7.50;99.90;;;;;;5031912;28;20025;-88
2021/04/10 00:34:28;;;;;;;11.90;4.30;;;7.40;99.90;;;;;;4999409;28;20041;-90
2021/04/10 00:36:59;;;;;;;11.27;3.60;;;7.50;99.90;;;;;;5027088;28;20121;-91
2021/04/10 00:39:25;;;;;;;7.40;3.10;;;7.40;99.90;;;;;;5021043;28;20088;-89
2021/04/10 00:41:54;;;;;;;8.70;3.13;;;7.50;99.90;;;;;;5032754;28;20441;-87
2021/04/10 00:44:19;;;;;;;8.70;2.83;;;7.40;99.90;;;;;;5035323;28;20045;-88
2021/04/10 00:46:45;;;;;;;8.00;3.13;;;7.40;99.90;;;;;;5036378;28;20025;-90
2021/04/10 00:49:10;;;;;;;11.23;3.78;;;7.40;99.90;;;;;;5030447;28;20030;-90
2021/04/10 00:51:37;;;;;;;7.22;2.50;;;7.40;99.90;;;;;;5024462;28;20496;-90
2021/04/10 00:54:04;;;;;;;6.50;3.00;;;7.40;99.90;;;;;;5018258;28;20038;-88
2021/04/10 00:56:34;;;;;;;10.73;3.03;;;7.40;99.90;;;;;;5030803;28;20484;-89
2021/04/10 00:59:01;;;;;;;11.32;3.30;;;7.30;99.90;;;;;;5033194;28;20060;-90
2021/04/10 01:01:27;;;;;;;9.73;2.78;;;7.30;99.90;;;;;;5022381;28;20045;-89
2021/04/10 01:03:53;;;;;;;11.52;3.22;;;7.30;99.90;;;;;;5025004;28;20029;-90
2021/04/10 01:06:19;;;;;;;9.32;3.47;;;7.30;99.90;;;;;;5018748;28;20095;-88
2021/04/10 01:08:44;;;;;;;3.88;2.20;;;7.30;99.90;;;;;;5031653;28;20025;-89
2021/04/10 01:11:42;;;;;;;9.20;3.10;;;7.30;99.90;;;;;;5030819;28;20041;-89
2021/04/10 01:14:28;;;;;;;10.80;3.25;;;7.30;99.90;;;;;;5017265;28;20104;-89
2021/04/10 01:17:03;;;;;;;8.60;2.63;;;7.20;99.90;;;;;;5019710;28;20036;-89
2021/04/10 01:20:06;;;;;;;10.43;3.35;;;7.20;99.90;;;;;;5022650;28;20120;-87
2021/04/10 01:22:41;;;;;;;11.43;2.95;;;7.10;99.90;;;;;;5015169;28;20061;-90
2021/04/10 01:25:10;;;;;;;8.05;2.70;;;7.00;99.90;;;;;;5027542;28;20540;-88
2021/04/10 01:27:46;;;;;;;6.18;2.72;;;7.10;99.90;;;;;;5005508;28;20037;-89
2021/04/10 01:30:20;;;;;;;5.32;2.45;;;7.10;99.90;;;;;;5030501;28;20037;-89
2021/04/10 01:33:06;;;;;;;11.05;2.92;;;7.10;99.90;;;;;;5010649;28;20058;-89
2021/04/10 01:35:39;;;;;;;10.93;3.05;;;7.10;99.90;;;;;;5021713;28;20056;-88
2021/04/10 01:38:09;;;;;;;10.53;4.40;;;7.00;99.90;;;;;;5034705;28;20025;-90
2021/04/10 01:40:36;;;;;;;8.88;2.80;;;7.00;99.90;;;;;;5044608;28;20067;-89
2021/04/10 01:43:04;;;;;;;10.27;3.03;;;6.90;99.90;;;;;;5048475;28;20040;-90
2021/04/10 01:45:31;;;;;;;7.88;3.30;;;6.90;99.90;;;;;;5034054;28;20022;-88
2021/04/10 01:48:03;;;;;;;11.68;3.28;;;6.90;99.90;;;;;;5045070;28;20045;-89
2021/04/10 01:50:32;;;;;;;9.65;3.50;;;6.90;99.90;;;;;;5044014;28;20458;-87
2021/04/10 01:53:00;;;;;;;9.50;3.92;;;6.90;99.90;;;;;;5054275;28;20029;-89
2021/04/10 01:55:28;;;;;;;8.27;2.95;;;6.90;99.90;;;;;;5055591;28;20025;-90
2021/04/10 01:57:55;;;;;;;8.45;3.50;;;6.80;99.90;;;;;;5055425;28;20060;-89
2021/04/10 02:00:24;;;;;;;7.22;2.65;;;6.80;99.90;;;;;;5058747;28;20477;-89
2021/04/10 02:02:51;;;;;;;9.40;3.33;;;6.80;99.90;;;;;;5050754;28;20036;-88
2021/04/10 02:05:17;;;;;;;12.75;3.67;;;6.90;99.90;;;;;;5051784;28;20021;-88
2021/04/10 02:07:50;;;;;;;5.43;2.50;;;6.80;99.90;;;;;;5043894;28;20021;-88
2021/04/10 02:10:20;;;;;;;10.25;3.20;;;6.80;99.90;;;;;;5051388;28;20056;-87
2021/04/10 02:12:50;;;;;;;5.82;3.00;;;6.80;99.90;;;;;;5048722;28;20103;-90
2021/04/10 02:15:21;;;;;;;7.95;2.92;;;6.80;99.90;;;;;;5037761;28;20033;-90
2021/04/10 02:17:47;;;;;;;9.00;3.45;;;6.80;99.90;;;;;;5037253;28;20148;-90
2021/04/10 02:20:14;;;;;;;8.75;3.08;;;6.80;99.90;;;;;;5054975;28;20568;-88
2021/04/10 02:22:44;;;;;;;7.28;2.85;;;6.70;99.90;;;;;;5053828;28;20393;-88
2021/04/10 02:25:10;;;;;;;13.27;3.78;;;6.70;99.90;;;;;;5054626;28;20024;-90
2021/04/10 02:27:38;;;;;;;10.27;3.55;;;6.70;99.90;;;;;;5053790;28;20083;-89
2021/04/10 02:30:06;;;;;;;11.27;4.35;;;6.70;99.90;;;;;;5054517;28;20025;-89
2021/04/10 02:32:44;;;;;;;11.63;4.32;;;6.70;99.90;;;;;;5055145;28;20032;-90
2021/04/10 02:35:18;;;;;;;9.00;3.08;;;6.70;99.90;;;;;;5054399;28;20025;-87
2021/04/10 02:37:47;;;;;;;13.85;5.40;;;6.70;99.90;;;;;;5055678;28;20483;-90
2021/04/10 02:40:16;;;;;;;9.48;3.67;;;6.60;99.90;;;;;;5042317;28;20026;-88
2021/04/10 02:42:46;;;;;;;9.32;3.75;;;6.60;99.90;;;;;;5034506;28;20017;-89
2021/04/10 02:45:15;;;;;;;9.63;3.75;;;6.60;99.90;;;;;;5034963;28;20033;-90
2021/04/10 02:47:44;;;;;;;11.85;4.03;;;6.50;99.90;;;;;;5017805;28;20491;-87
2021/04/10 02:50:12;;;;;;;12.75;4.32;;;6.50;99.90;;;;;;5034287;28;20127;-89
2021/04/10 02:52:42;;;;;;;8.60;4.07;;;6.50;99.90;;;;;;5033033;28;20025;-90
2021/04/10 02:55:11;;;;;;;11.57;4.18;;;6.50;99.90;;;;;;5034719;28;20137;-90
2021/04/10 02:57:39;;;;;;;12.65;4.13;;;6.40;99.90;;;;;;5017735;28;20088;-89
2021/04/10 03:00:07;;;;;;;11.38;4.38;;;6.40;99.90;;;;;;5034147;28;20044;-89
2021/04/10 03:02:35;;;;;;;9.73;5.00;;;6.40;99.90;;;;;;5034688;28;20116;-90
2021/04/10 03:05:02;;;;;;;10.57;4.50;;;6.40;99.90;;;;;;5034794;28;20096;-90
2021/04/10 03:07:28;;;;;;;13.85;4.60;;;6.30;99.90;;;;;;5035510;28;20479;-89
2021/04/10 03:09:56;;;;;;;9.68;4.78;;;6.30;99.90;;;;;;5033709;28;20485;-90
2021/04/10 03:12:23;;;;;;;10.80;4.05;;;6.30;99.90;;;;;;5034657;28;20034;-88
2021/04/10 03:14:51;;;;;;;8.75;4.50;;;6.30;99.90;;;;;;5034015;28;20052;-90
2021/04/10 03:17:23;;;;;;;8.93;5.03;;;6.30;99.90;;;;;;5034046;28;20529;-90
2021/04/10 03:19:50;;;;;;;9.45;3.72;;;6.30;99.90;;;;;;5034865;28;20025;-89
2021/04/10 03:22:17;;;;;;;10.77;4.68;;;6.30;99.90;;;;;;5034744;28;20029;-86
2021/04/10 03:24:43;;;;;;;8.55;3.72;;;6.30;99.90;;;;;;5033829;28;20029;-89
2021/04/10 03:27:11;;;;;;;10.63;3.95;;;6.30;99.90;;;;;;5016911;28;20046;-88
2021/04/10 03:29:38;;;;;;;8.45;4.10;;;6.30;99.90;;;;;;5033562;28;20032;-88
2021/04/10 03:32:05;;;;;;;10.65;4.32;;;6.30;99.90;;;;;;5033615;28;20060;-87
2021/04/10 03:34:33;;;;;;;10.55;4.35;;;6.30;99.90;;;;;;5016886;28;20026;-89
2021/04/10 03:36:59;;;;;;;8.50;4.00;;;6.30;99.90;;;;;;5034201;28;20033;-89
2021/04/10 03:39:25;;;;;;;7.55;3.92;;;6.20;99.90;;;;;;5032942;28;20025;-87
2021/04/10 03:41:51;;;;;;;11.18;4.32;;;6.20;99.90;;;;;;5033081;28;20032;-88
2021/04/10 03:44:18;;;;;;;10.43;4.10;;;6.20;99.90;;;;;;5033262;28;20026;-88
2021/04/10 03:46:44;;;;;;;13.00;4.68;;;6.20;99.90;;;;;;5034390;28;20470;-87
2021/04/10 03:49:10;;;;;;;14.18;5.13;;;6.20;99.90;;;;;;5032994;28;20040;-88
2021/04/10 03:51:37;;;;;;;10.00;4.60;;;6.20;99.90;;;;;;5033430;28;20033;-89
2021/04/10 03:54:04;;;;;;;16.42;5.22;;;6.20;99.90;;;;;;5017987;28;20034;-87
2021/04/10 03:56:30;;;;;;;11.75;4.80;;;6.20;99.90;;;;;;5033867;28;20026;-88
2021/04/10 03:58:56;;;;;;;13.05;4.72;;;6.20;99.90;;;;;;5033188;28;20049;-87
2021/04/10 04:01:22;;;;;;;10.82;5.30;;;6.10;99.90;;;;;;5016831;28;20191;-89
2021/04/10 04:03:47;;;;;;;10.48;5.00;;;6.10;99.90;;;;;;5032754;28;20057;-88
2021/04/10 04:06:36;;;;;;;11.10;4.70;;;6.10;99.90;;;;;;5034423;28;20025;-88
2021/04/10 04:09:02;;;;;;;11.70;4.55;;;6.20;99.90;;;;;;5030741;28;20065;-90
2021/04/10 04:11:27;;;;;;;9.40;4.68;;;6.20;99.90;;;;;;5032569;28;20077;-88
2021/04/10 04:13:54;;;;;;;12.07;4.93;;;6.20;99.90;;;;;;5033170;28;20029;-87
2021/04/10 04:16:20;;;;;;;11.80;5.35;;;6.20;99.90;;;;;;5033175;28;20056;-87
2021/04/10 04:18:47;;;;;;;10.70;4.90;;;6.20;99.90;;;;;;5034069;28;20017;-87
2021/04/10 04:21:15;;;;;;;15.18;5.07;;;6.20;99.90;;;;;;5032858;28;20045;-88
2021/04/10 04:23:40;;;;;;;11.07;4.95;;;6.20;99.90;;;;;;5033200;28;20029;-88
2021/04/10 04:26:06;;;;;;;9.63;4.85;;;6.20;99.90;;;;;;5033070;28;20078;-89
2021/04/10 04:28:31;;;;;;;13.77;6.38;;;6.20;99.90;;;;;;5032436;28;20481;-87
2021/04/10 04:30:58;;;;;;;11.82;5.53;;;6.20;99.90;;;;;;5033677;28;20025;-88
2021/04/10 04:33:24;;;;;;;14.35;5.95;;;6.10;99.90;;;;;;5032872;28;20413;-88
2021/04/10 04:35:50;;;;;;;10.85;4.95;;;6.20;99.90;;;;;;5034107;28;20036;-88
2021/04/10 04:38:15;;;;;;;11.20;5.15;;;6.10;99.90;;;;;;5033043;28;20092;-86
2021/04/10 04:40:42;;;;;;;11.18;5.10;;;6.20;99.90;;;;;;5015991;28;20156;-88
2021/04/10 04:43:08;;;;;;;11.95;6.07;;;6.20;99.90;;;;;;5032816;28;20022;-88
2021/04/10 04:45:34;;;;;;;10.82;5.38;;;6.10;99.90;;;;;;5032145;28;20025;-86
2021/04/10 04:48:00;;;;;;;11.75;5.32;;;6.10;99.90;;;;;;5033339;28;20511;-89
2021/04/10 04:50:26;;;;;;;10.52;5.18;;;6.10;99.90;;;;;;5034129;28;20099;-87
2021/04/10 04:52:52;;;;;;;10.88;5.57;;;6.10;99.90;;;;;;5035921;28;20128;-87
2021/04/10 04:55:18;;;;;;;10.68;5.07;;;6.10;99.90;;;;;;5036370;28;20029;-87
2021/04/10 04:57:45;;;;;;;8.88;4.40;;;6.10;99.90;;;;;;5035980;28;20461;-87
2021/04/10 05:00:13;;;;;;;9.85;4.40;;;6.10;99.90;;;;;;5036021;28;20466;-87
2021/04/10 05:02:39;;;;;;;10.25;4.88;;;6.10;99.90;;;;;;5035815;28;20040;-88
2021/04/10 05:05:05;;;;;;;12.80;6.18;;;6.10;99.90;;;;;;5019633;28;20488;-87
2021/04/10 05:07:31;;;;;;;12.77;5.00;;;6.20;99.90;;;;;;5036055;28;20104;-88
2021/04/10 05:09:56;;;;;;;14.98;5.53;;;6.20;99.90;;;;;;5034923;28;20481;-89
2021/04/10 05:12:22;;;;;;;8.70;3.80;;;6.20;99.90;;;;;;5019668;28;20025;-88
2021/04/10 05:14:48;;;;;;;11.82;5.45;;;6.20;99.90;;;;;;5035808;28;20021;-88
2021/04/10 05:17:14;;;;;;;14.48;5.10;;;6.20;99.90;;;;;;5035836;28;20087;-89
2021/04/10 05:19:42;;;;;;;12.98;4.85;;;6.20;99.90;;;;;;5037216;28;20028;-88
2021/04/10 05:22:09;;;;;;;13.52;4.97;;;6.30;99.90;;;;;;5036946;28;20021;-87
2021/04/10 05:24:35;;;;;;;10.85;4.93;;;6.30;99.90;;;;;;5035333;28;20025;-88
2021/04/10 05:27:01;;;;;;;10.88;4.97;;;6.30;99.90;;;;;;5019244;28;20079;-89
2021/04/10 05:29:26;;;;;;;13.32;5.53;;;6.20;99.90;;;;;;5037770;28;20481;-87
2021/04/10 05:31:52;;;;;;;11.75;5.30;;;6.20;99.90;;;;;;5038443;28;20036;-87
2021/04/10 05:34:17;;;;;;;12.73;5.75;;;6.20;99.90;;;;;;5041731;28;20025;-87
2021/04/10 05:36:43;;;;;;;11.98;5.03;;;6.20;99.90;;;;;;5037655;28;20025;-87
2021/04/10 05:39:09;;;;;;;11.45;5.20;;;6.20;99.90;;;;;;5035779;28;20465;-88
2021/04/10 05:41:35;;;;;;;12.50;5.03;;;6.20;99.90;;;;;;5035857;28;20045;-88
2021/04/10 05:44:01;;;;;;;14.10;6.05;;;6.30;99.90;;;;;;5037093;28;20124;-86
2021/04/10 05:46:29;;;;;;;9.55;4.53;;;6.30;99.90;;;;;;5038245;28;20588;-88
2021/04/10 05:48:55;;;;;;;12.73;4.78;;;6.30;99.90;;;;;;5035449;28;20079;-88
2021/04/10 05:51:21;;;;;;;12.00;4.70;;;6.30;99.90;;;;;;5035431;28;20033;-88
2021/04/10 05:53:47;;;;;;;11.43;4.30;;;6.30;99.90;;;;;;5034845;28;20405;-88
2021/04/10 05:56:13;;;;;;;14.27;4.47;;;6.40;99.90;;;;;;5038092;28;20033;-88
2021/04/10 05:58:39;;;;;;;12.82;4.38;;;6.40;99.90;;;;;;5037759;28;20022;-88
2021/04/10 06:01:04;;;;;;;11.55;4.18;;;6.40;99.90;;;;;;5018241;28;20132;-86
2021/04/10 06:03:30;;;;;;;12.32;4.00;;;6.40;99.90;;;;;;5035039;28;20121;-88
2021/04/10 06:05:56;;;;;;;9.43;3.20;;;6.40;99.90;;;;;;5034961;28;20028;-87
2021/04/10 06:08:22;;;;;;;10.82;4.05;;;6.50;99.90;;;;;;5034834;28;20045;-86
2021/04/10 06:10:47;;;;;;;9.40;3.47;;;6.50;99.90;;;;;;5017913;28;20058;-88
2021/04/10 06:13:14;;;;;;;10.52;3.25;;;6.50;99.90;;;;;;5034936;28;20079;-86
2021/04/10 06:15:41;;;;;;;9.40;3.05;;;6.60;99.90;;;;;;5034850;28;20049;-87
2021/04/10 06:18:07;;;;;;;10.80;3.15;;;6.60;99.90;;;;;;5018476;28;20025;-85
2021/04/10 06:20:32;;;;;;;8.00;3.50;;;6.70;99.90;;;;;;5034299;28;20465;-86
2021/04/10 06:22:59;;;;;;;11.75;3.67;;;6.70;99.90;;;;;;5034566;28;20099;-87
2021/04/10 06:25:25;;;;;;;7.43;2.97;;;6.70;99.90;;;;;;5034572;28;20029;-87
2021/04/10 06:27:51;;;;;;;11.27;4.85;;;6.80;99.90;;;;;;5034207;28;20462;-86
2021/04/10 06:30:19;;;;;;;12.10;3.65;;;6.80;99.90;;;;;;5034699;28;20067;-88
2021/04/10 06:32:45;;;;;;;9.68;3.60;;;6.80;99.90;;;;;;5034276;28;20022;-85
2021/04/10 06:35:13;;;;;;;11.43;4.20;;;6.90;99.90;;;;;;5018228;28;20029;-86
2021/04/10 06:37:38;;;;;;;12.05;3.67;;;6.90;99.90;;;;;;5033938;28;20033;-88
2021/04/10 06:40:10;;;;;;;11.10;3.97;;;6.90;99.90;;;;;;5033435;28;20037;-86
2021/04/10 06:42:37;;;;;;;14.07;4.38;;;7.00;99.90;;;;;;5018135;28;20436;-87
2021/04/10 06:45:06;;;;;;;9.80;3.92;;;7.00;99.90;;;;;;5033497;28;20116;-87
2021/04/10 06:47:35;;;;;;;12.77;4.30;;;7.00;99.90;;;;;;5035287;28;20017;-87
2021/04/10 06:50:04;;;;;;;12.60;3.95;;;7.10;99.90;;;;;;5034271;28;20045;-87
2021/04/10 06:52:35;;;;;;;13.95;4.28;;;7.10;99.90;;;;;;5035307;28;20458;-86
2021/04/10 06:55:09;;;;;;;13.32;4.30;;;7.10;99.90;;;;;;5033998;28;20091;-86
2021/04/10 06:57:41;;;;;;;8.48;3.80;;;7.10;99.90;;;;;;5034409;28;20087;-87
2021/04/10 07:00:14;;;;;;;10.82;3.67;;;7.10;99.90;;;;;;5035229;28;20029;-87
2021/04/10 07:02:41;;;;;;;8.23;3.28;;;7.10;99.90;;;;;;5034119;28;20030;-86
2021/04/10 07:05:07;;;;;;;8.48;3.10;;;7.20;99.90;;;;;;5034025;28;20033;-87
2021/04/10 07:07:34;;;;;;;9.77;3.58;;;7.30;99.90;;;;;;5017440;28;20421;-87
2021/04/10 07:10:04;;;;;;;7.00;3.25;;;7.40;99.90;;;;;;5033133;28;20081;-86
2021/04/10 07:12:34;;;;;;;8.63;2.53;;;7.40;99.90;;;;;;5032934;28;20491;-86
2021/04/10 07:14:59;;;;;;;5.97;2.42;;;7.50;99.90;;;;;;5033549;28;20026;-87
2021/04/10 07:17:28;;;;;;;8.13;3.03;;;7.50;99.90;;;;;;5034679;28;20446;-89
2021/04/10 07:19:54;;;;;;;8.93;3.08;;;7.50;99.90;;;;;;5033420;28;20040;-87
2021/04/10 07:22:22;;;;;;;6.43;2.17;;;7.60;99.90;;;;;;5034855;28;20022;-85
2021/04/10 07:24:52;;;;;;;7.35;2.75;;;7.60;99.90;;;;;;5033629;28;20036;-88
2021/04/10 07:27:23;;;;;;;8.75;2.90;;;7.60;99.90;;;;;;5033603;28;20112;-87
2021/04/10 07:29:50;;;;;;;10.68;2.83;;;7.70;99.90;;;;;;5016628;28;20038;-88
2021/04/10 07:32:33;;;;;;;8.07;2.33;;;7.70;99.90;;;;;;5033526;28;20059;-88
2021/04/10 07:35:10;;;;;;;6.28;2.42;;;7.80;99.90;;;;;;5034453;28;20026;-87
2021/04/10 07:37:51;;;;;;;7.63;2.63;;;7.80;99.90;;;;;;5035912;28;20069;-88
2021/04/10 07:40:27;;;;;;;6.80;2.70;;;7.90;99.90;;;;;;5024358;28;20080;-87
2021/04/10 07:43:00;;;;;;;9.15;2.63;;;8.00;99.90;;;;;;5051415;28;20071;-87
2021/04/10 07:45:32;;;;;;;7.82;2.30;;;8.00;99.90;;;;;;5052038;28;20032;-88
2021/04/10 07:48:14;;;;;;;8.55;2.35;;;8.10;99.90;;;;;;5047674;28;20065;-89
2021/04/10 07:50:40;;;;;;;6.78;2.55;;;8.20;99.90;;;;;;5045705;28;20056;-88
2021/04/10 07:53:27;;;;;;;9.95;2.85;;;8.20;99.90;;;;;;5043888;28;20987;-88
2021/04/10 07:55:58;;;;;;;6.65;2.90;;;8.30;99.90;;;;;;5037758;28;20033;-88
2021/04/10 07:58:30;;;;;;;8.15;2.70;;;8.30;99.90;;;;;;5042074;28;20029;-89
2021/04/10 08:01:07;;;;;;;9.23;3.30;;;8.30;99.90;;;;;;5022131;28;20057;-87
2021/04/10 08:03:51;;;;;;;11.38;4.32;;;8.40;99.90;;;;;;5036629;28;20500;-88
2021/04/10 08:06:19;;;;;;;8.13;3.00;;;8.40;99.90;;;;;;5017145;28;20132;-86
2021/04/10 08:09:01;;;;;;;9.65;3.00;;;8.50;99.90;;;;;;5029150;28;20029;-86
2021/04/10 08:11:51;;;;;;;8.13;3.05;;;8.50;99.90;;;;;;5050154;28;20124;-88
2021/04/10 08:14:18;;;;;;;10.32;2.85;;;8.50;99.90;;;;;;5050316;28;20199;-87
2021/04/10 08:17:01;;;;;;;9.35;3.25;;;8.50;99.90;;;;;;5051080;28;20028;-91
2021/04/10 08:19:39;;;;;;;6.95;2.85;;;8.60;99.90;;;;;;5050332;28;20036;-89
2021/04/10 08:22:12;;;;;;;9.02;2.88;;;8.50;99.90;;;;;;5031991;28;20045;-88
2021/04/10 08:24:41;;;;;;;8.63;2.92;;;8.50;99.90;;;;;;5023017;28;20097;-88
2021/04/10 08:27:13;;;;;;;8.82;2.72;;;8.60;99.90;;;;;;5027147;28;20028;-90
2021/04/10 08:29:46;;;;;;;6.43;2.90;;;8.60;99.90;;;;;;5033351;28;20022;-88
2021/04/10 08:32:13;;;;;;;8.70;2.90;;;8.70;99.90;;;;;;5040844;28;20021;-87
2021/04/10 08:34:40;;;;;;;8.27;2.58;;;8.80;99.90;;;;;;5043104;28;20025;-88
2021/04/10 08:37:36;;;;;;;7.35;2.60;;;8.80;99.90;;;;;;5029161;28;20112;-88
2021/04/10 08:40:06;;;;;;;7.78;2.75;;;8.80;99.90;;;;;;5029400;28;20053;-87
2021/04/10 08:42:34;;;;;;;9.55;2.70;;;8.90;99.90;;;;;;5037197;28;20500;-88
2021/04/10 08:45:02;;;;;;;9.68;3.15;;;9.10;99.90;;;;;;5044009;28;20100;-87
2021/04/10 08:47:28;;;;;;;8.15;2.55;;;9.10;99.90;;;;;;5028347;28;20033;-88
2021/04/10 08:49:59;;;;;;;7.95;2.38;;;9.20;99.90;;;;;;5043284;28;20381;-88
2021/04/10 08:52:33;;;;;;;6.93;2.13;;;9.20;99.90;;;;;;5042547;28;20030;-88
2021/04/10 08:55:15;;;;;;;6.28;1.80;;;9.20;99.90;;;;;;5037737;28;20125;-88
2021/04/10 08:57:43;;;;;;;4.95;2.35;;;9.20;99.90;;;;;;5040134;28;20123;-87
2021/04/10 09:00:25;;;;;;;4.82;1.85;;;9.30;99.90;;;;;;5059365;28;20036;-88
2021/04/10 09:03:01;;;;;;;5.82;2.40;;;9.50;99.90;;;;;;5051979;28;20021;-86
2021/04/10 09:06:02;;;;;;;6.82;2.38;;;9.70;99.90;;;;;;5036751;28;20535;-90
2021/04/10 09:08:32;;;;;;;5.47;2.20;;;9.80;99.90;;;;;;4995169;28;20113;-88
2021/04/10 09:11:05;;;;;;;10.38;2.72;;;10.00;99.90;;;;;;4975858;28;20050;-89
2021/04/10 09:13:33;;;;;;;10.10;2.40;;;10.00;99.90;;;;;;4974553;28;20030;-88
2021/04/10 09:16:47;;;;;;;6.43;2.33;;;10.00;99.90;;;;;;4992943;28;20065;-87
2021/04/10 09:19:18;;;;;;;12.60;2.80;;;9.90;99.70;;;;;;4985279;28;20098;-87
2021/04/10 09:22:18;;;;;;;10.85;2.92;;;9.70;99.80;;;;;;4994507;28;20030;-87
2021/04/10 09:24:47;;;;;;;12.65;3.13;;;9.60;99.70;;;;;;4977469;28;20519;-89
2021/04/10 09:27:24;;;;;;;8.98;2.03;;;9.40;99.90;;;;;;4993422;28;20062;-89
2021/04/10 09:30:34;;;;;;;6.65;2.10;;;9.40;99.90;;;;;;4976733;28;20038;-88
2021/04/10 09:33:36;;;;;;;7.65;2.90;;;9.40;99.90;;;;;;4966699;28;20050;-88
2021/04/10 09:36:43;;;;;;;8.15;2.80;;;9.30;99.90;;;;;;4981591;28;20066;-89
2021/04/10 09:39:50;;;;;;;11.07;2.70;;;9.10;99.90;;;;;;4976979;28;20129;-87
2021/04/10 09:42:37;;;;;;;10.75;3.13;;;9.10;99.90;;;;;;5011377;28;20059;-87
2021/04/10 09:45:08;;;;;;;7.45;2.10;;;9.10;99.90;;;;;;5033068;28;20492;-87
2021/04/10 09:48:14;;;;;;;9.40;2.90;;;9.20;99.90;;;;;;5037248;28;20025;-89
2021/04/10 09:51:07;;;;;;;7.88;2.55;;;9.30;99.90;;;;;;4984993;28;20022;-87
2021/04/10 09:53:34;;;;;;;6.05;2.05;;;9.30;99.90;;;;;;4982022;28;20030;-88
2021/04/10 09:56:12;;;;;;;9.75;3.13;;;9.40;99.90;;;;;;5029368;28;20033;-90
2021/04/10 09:58:45;;;;;;;6.93;2.38;;;9.40;99.90;;;;;;5018482;28;20026;-88
2021/04/10 10:01:13;;;;;;;;;;;9.30;99.90;;;;;;5054626;28;20083;-87
2021/04/10 10:03:39;;;;;;;8.50;2.47;;;9.30;99.90;;;;;;5038354;28;19905;-87
2021/04/10 10:06:32;;;;;;;5.03;2.20;;;9.30;99.90;;;;;;5041690;28;20029;-89
2021/04/10 10:08:59;;;;;;;7.28;2.47;;;9.20;99.90;;;;;;5030400;28;20048;-88
2021/04/10 10:11:26;;;;;;;9.27;3.22;;;9.20;99.90;;;;;;5052745;28;20059;-88
2021/04/10 10:13:58;;;;;;;8.55;2.78;;;9.30;99.90;;;;;;5039202;28;20014;-86
2021/04/10 10:16:26;;;;;;;12.25;2.88;;;9.40;99.90;;;;;;5032421;28;20592;-87
2021/04/10 10:18:53;;;;;;;7.40;2.80;;;9.40;99.90;;;;;;5044383;28;20025;-87
2021/04/10 10:21:21;;;;;;;10.38;3.03;;;9.40;99.90;;;;;;5052180;28;20037;-88
2021/04/10 10:23:55;;;;;;;9.43;3.05;;;9.40;99.90;;;;;;5048894;28;20120;-88
2021/04/10 10:26:27;;;;;;;10.35;3.60;;;9.50;99.90;;;;;;5033828;28;20036;-88
2021/04/10 10:29:10;;;;;;;9.40;3.67;;;9.50;99.80;;;;;;5034528;28;20457;-87
2021/04/10 10:31:55;;;;;;;9.30;2.55;;;9.40;99.90;;;;;;5034846;28;20049;-89
2021/04/10 10:34:26;;;;;;;10.88;4.13;;;9.40;99.90;;;;;;5034030;28;20036;-90
2021/04/10 10:36:54;;;;;;;8.82;2.90;;;9.50;99.90;;;;;;5032448;28;20032;-89
2021/04/10 10:39:39;;;;;;;9.70;3.15;;;9.30;99.90;;;;;;5039364;28;20059;-89
2021/04/10 10:42:07;;;;;;;8.63;3.38;;;9.40;99.90;;;;;;5050042;28;20087;-89
2021/04/10 10:44:47;;;;;;;8.57;3.75;;;9.30;99.90;;;;;;5026316;28;21391;-89
2021/04/10 10:47:15;;;;;;;9.00;3.20;;;9.30;99.90;;;;;;5053008;28;20029;-89
2021/04/10 10:49:47;;;;;;;11.10;4.57;;;9.30;99.90;;;;;;5056016;28;20025;-89
2021/04/10 10:52:17;;;;;;;6.78;3.35;;;9.20;99.90;;;;;;5056349;28;20088;-90
2021/04/10 10:54:50;;;;;;;9.10;3.65;;;9.10;99.90;;;;;;5058871;28;20486;-87
2021/04/10 10:57:18;;;;;;;13.20;4.45;;;9.20;99.90;;;;;;5055848;28;20029;-89
2021/04/10 10:59:46;;;;;;;12.35;4.45;;;9.20;99.90;;;;;;5054632;28;20028;-89
2021/04/10 11:02:19;;;;;;;9.35;3.58;;;9.10;99.90;;;;;;5054295;28;20053;-90
2021/04/10 11:04:47;;;;;;;6.70;3.10;;;9.00;99.90;;;;;;5059288;28;20033;-89
2021/04/10 11:07:14;;;;;;;10.77;3.10;;;9.10;99.90;;;;;;5060768;28;20083;-89
2021/04/10 11:09:46;;;;;;;12.30;3.92;;;9.10;99.90;;;;;;5056974;28;20052;-88
2021/04/10 11:12:19;;;;;;;9.70;3.72;;;9.10;99.90;;;;;;5038839;28;20042;-90
2021/04/10 11:14:47;;;;;;;7.30;3.30;;;9.10;99.90;;;;;;5035414;28;20030;-88
2021/04/10 11:17:31;;;;;;;11.18;3.92;;;9.10;99.90;;;;;;5034357;28;20115;-89
2021/04/10 11:20:29;;;;;;;9.50;3.10;;;9.20;99.90;;;;;;5034094;28;20033;-91
2021/04/10 11:23:10;;;;;;;8.23;3.67;;;9.20;99.90;;;;;;5034424;28;20038;-89
2021/04/10 11:25:54;;;;;;;9.13;4.25;;;9.40;99.90;;;;;;5035357;28;20294;-90
2021/04/10 11:28:33;;;;;;;8.70;2.97;;;9.40;99.90;;;;;;5035130;28;20044;-90
2021/04/10 11:31:15;;;;;;;10.57;4.30;;;9.40;99.90;;;;;;5036841;28;20079;-90
2021/04/10 11:33:41;;;;;;;9.65;5.05;;;9.40;99.90;;;;;;5034878;28;20428;-89
2021/04/10 11:36:09;;;;;;;10.70;4.82;;;9.40;99.90;;;;;;5036810;28;20028;-89
2021/04/10 11:38:35;;;;;;;13.82;5.95;;;9.30;99.90;;;;;;5035500;28;20033;-91
2021/04/10 11:41:03;;;;;;;12.15;5.22;;;9.20;99.90;;;;;;5033492;28;20121;-90
2021/04/10 11:43:29;;;;;;;10.27;5.20;;;9.20;99.90;;;;;;5038977;28;20041;-91
2021/04/10 11:45:57;;;;;;;11.77;6.53;;;9.10;99.90;;;;;;5039005;28;20060;-90
2021/04/10 11:48:31;;;;;;;12.25;6.18;;;9.10;99.90;;;;;;5038168;28;20021;-90
2021/04/10 11:51:03;;;;;;;13.88;5.43;;;9.20;99.90;;;;;;5056232;28;20037;-90
2021/04/10 11:53:34;;;;;;;11.15;5.30;;;9.10;99.90;;;;;;5054084;28;20057;-90
2021/04/10 11:56:21;;;;;;;12.43;7.15;;;9.10;99.90;;;;;;5036870;28;20029;-89
2021/04/10 11:59:04;;;;;;;12.30;7.07;;;9.10;99.90;;;;;;5038027;28;20033;-89
2021/04/10 12:01:32;;;;;;;12.80;7.88;;;9.00;99.90;;;;;;5040462;28;20029;-89
2021/04/10 12:04:06;;;;;;;12.75;8.10;;;9.00;99.90;;;;;;5043108;28;20101;-89
2021/04/10 12:06:32;;;;;;;;;;;8.90;99.90;;;;;;5042655;28;20021;-89
2021/04/10 12:09:09;;;;;;;13.65;9.50;;;8.80;99.90;;;;;;5033784;28;19928;-89
2021/04/10 12:11:39;;;;;;;15.10;11.23;;;8.80;99.90;;;;;;5041344;28;20127;-89
2021/04/10 12:14:11;;;;;;;16.15;10.82;;;8.80;99.90;;;;;;5045883;28;20025;-90
2021/04/10 12:16:42;;;;;;;19.08;13.02;;;8.70;99.90;;;;;;5038016;28;20032;-89
2021/04/10 12:19:17;;;;;;;15.75;11.30;;;8.70;99.90;;;;;;5049865;28;20029;-88
2021/04/10 12:21:48;;;;;;;18.08;12.98;;;8.70;99.90;;;;;;5043630;28;20043;-88
2021/04/10 12:24:18;;;;;;;16.65;11.50;;;8.60;99.90;;;;;;5050360;28;20056;-89
2021/04/10 12:26:50;;;;;;;16.23;10.93;;;8.70;99.90;;;;;;5037710;28;20068;-88
2021/04/10 12:29:19;;;;;;;18.15;11.52;;;8.70;99.90;;;;;;5037030;28;20029;-90
2021/04/10 12:31:47;;;;;;;14.55;11.50;;;8.70;99.90;;;;;;5023806;28;20028;-89
2021/04/10 12:34:17;;;;;;;20.80;12.80;;;8.70;99.90;;;;;;5031272;28;20032;-89
2021/04/10 12:36:43;;;;;;;18.60;13.60;;;8.70;99.90;;;;;;5025680;28;20489;-89
2021/04/10 12:39:10;;;;;;;19.85;13.75;;;8.50;99.90;;;;;;5033382;28;20136;-89
2021/04/10 12:41:36;;;;;;;18.73;13.60;;;8.50;99.90;;;;;;5038801;28;20503;-89
2021/04/10 12:44:03;;;;;;;18.65;13.13;;;8.40;99.90;;;;;;5034493;28;20033;-89
2021/04/10 12:46:29;;;;;;;21.90;14.95;;;8.40;99.90;;;;;;5032935;28;20029;-90
2021/04/10 12:48:54;;;;;;;20.75;14.73;;;8.30;99.90;;;;;;5032400;28;20107;-89
2021/04/10 12:51:20;;;;;;;21.80;16.58;;;8.30;99.90;;;;;;5031800;28;20035;-86
2021/04/10 12:53:47;;;;;;;21.40;14.10;;;8.20;99.90;;;;;;5028170;28;20021;-87
2021/04/10 12:56:16;;;;;;;16.50;12.75;;;8.10;99.90;;;;;;5026811;28;20033;-88
2021/04/10 12:58:42;;;;;;;17.65;14.10;;;8.10;99.90;;;;;;5033010;28;20033;-87
2021/04/10 13:01:09;;;;;;;15.27;11.25;;;8.10;99.90;;;;;;5034686;28;20426;-89
2021/04/10 13:03:35;;;;;;;22.38;13.45;;;8.10;99.90;;;;;;5033636;28;20026;-87
2021/04/10 13:06:00;;;;;;;20.38;13.93;;;8.10;99.90;;;;;;5034491;28;20027;-87
2021/04/10 13:08:26;;;;;;;24.45;14.23;;;8.10;99.90;;;;;;5034511;28;20041;-88
2021/04/10 13:10:55;;;;;;;22.55;15.48;;;8.10;99.90;;;;;;5032176;28;20056;-88